BFI weather

Boeing Field King County International Airport
Seattle, Washington, United States

Public forecast

Using degrees Fahrenheit for public forecast. Weather courtesy of forecast.io.

METAR (pilot weather report)

Retrieved 2019/05/21 23:53 UTC (1 hour ago):

KBFI 212353Z VRB03KT 10SM SCT036 OVC110 17/09 A2979 RMK AO2 SLP086 T01670089 10167 20139 51005

TAF (pilot weather forecast)

Forecast is more than 12 hours old.

Retrieved 2019/05/21 00:22 UTC (1 day ago):

TAF KBFI 212320Z 2200/2224 36008KT P6SM BKN030 BKN150 FM220400 03005KT P6SM SCT030 BKN150 FM220800 VRB03KT P6SM FEW030 BKN100 FM221200 15004KT P6SM SCT025 BKN100 FM221900 30008KT P6SM SCT040 BKN100